Terminal Aerodrome Forecast
Issued by NWS Charleston, WV

Current Version | Previous Version | Text Only | Print | Product List | Glossary Off
Versions: 1 2 3 4 5 6 7 8 9 10 11 12 13 14 15 16 17 18 19 20

000
FTUS41 KRLX 231100
TAFHTS
TAF
KHTS 231128Z 2312/2412 15004KT P6SM BKN035
     FM231800 14006KT P6SM OVC045
     FM240200 15008KT 6SM -SHRA BR OVC030
     FM240800 16006KT 3SM -SHRA BR OVC025=

USA.gov is the U.S. government's official web portal to all federal, state and local government web resources and services.